River Of Ponds, Canada
Current Conditions -  °F | °C
As of 12:35 PM on Thursday 30 Oct 2014 (Local Time) from CWDH Reporting Station
Overcast Overcast  
Wind Chill: 36°   Ceiling: Unl
Heat Index: 44°   Visibility: 0.25mi
Dew Point: 41°   Wind: 18mph
Humidity: 91%   Direction: 210°SSW
Pressure: 29.49"   Gusts: 25mph
Location:  50.53°N, 57.38°W
Report Text: CWDH 301435Z AUTO 21016G22KT 1/4SM OVC000 07/05 A2949 RMK PK WND 21022/// T00660052 P0002 WSI/SWOB
Loading
Personal Weather Stations






























Interactive Weather Map
Tropical Storm Tracking
New forecast layout! Learn more

10-Day Weather Forecast

Advertisements
Track Severe Weather on mobile